KDLS/DLS METAR and TAF weather

Enter ICAO airport designator
Station Type Date Time Source
KDLS METAR 2019/02/23 16:53 UTC NOAA

KDLS 231653Z AUTO 33004KT 10SM BKN036 BKN070 OVC090 02/M01 A3017 RMK AO2 SLP217 T00221006


Station Type Date Time Source
KDLS Decoded METAR 2019/02/23 16:53 UTC NOAA

THE DALLES MUNICIPAL AIRPORT , OR, United States (KDLS) 45-37N 121-10W 71M
Feb 23, 2019 - 11:53 AM EST / 2019.02.23 1653 UTC
Wind: from the NNW (330 degrees) at 5 MPH (4 KT):0
Visibility: 10 mile(s):0
Sky conditions: overcast
Temperature: 36.0 F (2.2 C)
Dew Point: 30.9 F (-0.6 C)
Relative Humidity: 81%
Pressure (altimeter): 30.17 in. Hg (1021 hPa)
ob: KDLS 231653Z AUTO 33004KT 10SM BKN036 BKN070 OVC090 02/M01 A3017 RMK AO2 SLP217 T00221006
cycle: 17

Station Type Date Time Source
KDLS TAF 2019/02/23 12:22 UTC NOAA

TAF KDLS 231120Z 2312/2412 32004KT P6SM SCT030 BKN050
FM232200 32004KT P6SM -RASN BKN020 BKN050
FM240200 30008KT 6SM -SN SCT020 BKN030
TEMPO 2404/2406 3SM -SN BKN020 OVC050
FM240600 VRB03KT 4SM -SN BR BKN020


Example: see airport list